sensor_id;sensor_type;location;lat;lon;timestamp;P1;durP1;ratioP1;P2;durP2;ratioP2
3280;SDS011;1652;51.31805600;6.20194400;2024-01-10T00:01:57;4.63;;;3.20;;
3280;SDS011;1652;51.31805600;6.20194400;2024-01-10T00:04:24;3.77;;;2.70;;
3280;SDS011;1652;51.31805600;6.20194400;2024-01-10T00:06:51;3.70;;;3.40;;
3280;SDS011;1652;51.31805600;6.20194400;2024-01-10T00:09:18;4.53;;;3.50;;
3280;SDS011;1652;51.31805600;6.20194400;2024-01-10T00:11:45;4.53;;;4.13;;
3280;SDS011;1652;51.31805600;6.20194400;2024-01-10T00:14:12;2.60;;;2.40;;
3280;SDS011;1652;51.31805600;6.20194400;2024-01-10T00:16:39;5.13;;;2.60;;
3280;SDS011;1652;51.31805600;6.20194400;2024-01-10T00:19:06;2.67;;;2.47;;
3280;SDS011;1652;51.31805600;6.20194400;2024-01-10T00:21:33;5.73;;;3.37;;
3280;SDS011;1652;51.31805600;6.20194400;2024-01-10T00:24:01;3.67;;;2.43;;
3280;SDS011;1652;51.31805600;6.20194400;2024-01-10T00:26:28;6.33;;;4.20;;
3280;SDS011;1652;51.31805600;6.20194400;2024-01-10T00:28:55;8.07;;;4.17;;
3280;SDS011;1652;51.31805600;6.20194400;2024-01-10T00:31:30;5.03;;;3.43;;
3280;SDS011;1652;51.31805600;6.20194400;2024-01-10T00:33:57;5.57;;;3.23;;
3280;SDS011;1652;51.31805600;6.20194400;2024-01-10T00:36:24;3.87;;;3.20;;
3280;SDS011;1652;51.31805600;6.20194400;2024-01-10T00:38:51;3.30;;;2.83;;
3280;SDS011;1652;51.31805600;6.20194400;2024-01-10T00:41:18;3.50;;;3.17;;
3280;SDS011;1652;51.31805600;6.20194400;2024-01-10T00:43:45;3.87;;;3.50;;
3280;SDS011;1652;51.31805600;6.20194400;2024-01-10T00:46:12;4.37;;;3.97;;
3280;SDS011;1652;51.31805600;6.20194400;2024-01-10T00:48:39;3.87;;;2.80;;
3280;SDS011;1652;51.31805600;6.20194400;2024-01-10T00:51:06;8.50;;;3.40;;
3280;SDS011;1652;51.31805600;6.20194400;2024-01-10T00:53:35;3.60;;;3.27;;
3280;SDS011;1652;51.31805600;6.20194400;2024-01-10T00:56:05;11.37;;;3.80;;
3280;SDS011;1652;51.31805600;6.20194400;2024-01-10T00:58:33;4.50;;;3.47;;
3280;SDS011;1652;51.31805600;6.20194400;2024-01-10T01:01:00;3.13;;;2.90;;
3280;SDS011;1652;51.31805600;6.20194400;2024-01-10T01:03:27;2.30;;;2.20;;
3280;SDS011;1652;51.31805600;6.20194400;2024-01-10T01:05:54;3.23;;;2.93;;
3280;SDS011;1652;51.31805600;6.20194400;2024-01-10T01:08:21;4.47;;;3.60;;
3280;SDS011;1652;51.31805600;6.20194400;2024-01-10T01:10:48;3.70;;;3.40;;
3280;SDS011;1652;51.31805600;6.20194400;2024-01-10T01:13:15;3.17;;;2.97;;
3280;SDS011;1652;51.31805600;6.20194400;2024-01-10T01:15:43;5.97;;;2.97;;
3280;SDS011;1652;51.31805600;6.20194400;2024-01-10T01:18:09;3.37;;;3.17;;
3280;SDS011;1652;51.31805600;6.20194400;2024-01-10T01:20:39;4.53;;;3.70;;
3280;SDS011;1652;51.31805600;6.20194400;2024-01-10T01:23:06;4.30;;;3.90;;
3280;SDS011;1652;51.31805600;6.20194400;2024-01-10T01:25:33;3.77;;;3.27;;
3280;SDS011;1652;51.31805600;6.20194400;2024-01-10T01:28:00;3.50;;;2.43;;
3280;SDS011;1652;51.31805600;6.20194400;2024-01-10T01:30:27;5.70;;;3.50;;
3280;SDS011;1652;51.31805600;6.20194400;2024-01-10T01:32:54;3.13;;;2.93;;
3280;SDS011;1652;51.31805600;6.20194400;2024-01-10T01:35:21;3.83;;;3.53;;
3280;SDS011;1652;51.31805600;6.20194400;2024-01-10T01:37:49;4.37;;;3.30;;
3280;SDS011;1652;51.31805600;6.20194400;2024-01-10T01:40:17;5.20;;;3.27;;
3280;SDS011;1652;51.31805600;6.20194400;2024-01-10T01:42:45;5.63;;;3.20;;
3280;SDS011;1652;51.31805600;6.20194400;2024-01-10T01:45:12;3.27;;;2.97;;
3280;SDS011;1652;51.31805600;6.20194400;2024-01-10T01:47:39;3.63;;;3.23;;
3280;SDS011;1652;51.31805600;6.20194400;2024-01-10T01:50:07;2.93;;;2.70;;
3280;SDS011;1652;51.31805600;6.20194400;2024-01-10T01:52:35;3.13;;;2.90;;
3280;SDS011;1652;51.31805600;6.20194400;2024-01-10T01:55:03;2.70;;;2.50;;
3280;SDS011;1652;51.31805600;6.20194400;2024-01-10T01:57:31;3.30;;;3.00;;
3280;SDS011;1652;51.31805600;6.20194400;2024-01-10T01:59:59;2.53;;;2.43;;
3280;SDS011;1652;51.31805600;6.20194400;2024-01-10T02:02:26;3.03;;;2.80;;
3280;SDS011;1652;51.31805600;6.20194400;2024-01-10T02:04:55;4.70;;;4.30;;
3280;SDS011;1652;51.31805600;6.20194400;2024-01-10T02:07:22;4.13;;;3.33;;
3280;SDS011;1652;51.31805600;6.20194400;2024-01-10T02:09:49;2.40;;;2.20;;
3280;SDS011;1652;51.31805600;6.20194400;2024-01-10T02:12:16;2.60;;;2.40;;
3280;SDS011;1652;51.31805600;6.20194400;2024-01-10T02:14:43;2.60;;;1.90;;
3280;SDS011;1652;51.31805600;6.20194400;2024-01-10T02:17:10;3.40;;;3.17;;
3280;SDS011;1652;51.31805600;6.20194400;2024-01-10T02:19:37;7.23;;;3.10;;
3280;SDS011;1652;51.31805600;6.20194400;2024-01-10T02:22:04;3.80;;;3.40;;
3280;SDS011;1652;51.31805600;6.20194400;2024-01-10T02:24:31;3.50;;;2.40;;
3280;SDS011;1652;51.31805600;6.20194400;2024-01-10T02:26:58;4.80;;;3.70;;
3280;SDS011;1652;51.31805600;6.20194400;2024-01-10T02:29:25;3.60;;;3.30;;
3280;SDS011;1652;51.31805600;6.20194400;2024-01-10T02:31:52;4.20;;;3.67;;
3280;SDS011;1652;51.31805600;6.20194400;2024-01-10T02:34:19;3.80;;;3.27;;
3280;SDS011;1652;51.31805600;6.20194400;2024-01-10T02:36:46;3.00;;;2.77;;
3280;SDS011;1652;51.31805600;6.20194400;2024-01-10T02:39:13;4.17;;;3.17;;
3280;SDS011;1652;51.31805600;6.20194400;2024-01-10T02:41:40;4.33;;;3.20;;
3280;SDS011;1652;51.31805600;6.20194400;2024-01-10T02:44:07;2.70;;;2.50;;
3280;SDS011;1652;51.31805600;6.20194400;2024-01-10T02:46:34;3.30;;;3.00;;
3280;SDS011;1652;51.31805600;6.20194400;2024-01-10T02:49:01;8.43;;;3.60;;
3280;SDS011;1652;51.31805600;6.20194400;2024-01-10T02:51:28;6.90;;;3.90;;
3280;SDS011;1652;51.31805600;6.20194400;2024-01-10T02:53:57;3.83;;;3.20;;
3280;SDS011;1652;51.31805600;6.20194400;2024-01-10T02:56:24;3.83;;;2.93;;
3280;SDS011;1652;51.31805600;6.20194400;2024-01-10T02:58:51;3.37;;;3.17;;
3280;SDS011;1652;51.31805600;6.20194400;2024-01-10T03:01:18;3.57;;;3.00;;
3280;SDS011;1652;51.31805600;6.20194400;2024-01-10T03:03:45;10.73;;;3.53;;
3280;SDS011;1652;51.31805600;6.20194400;2024-01-10T03:06:12;6.13;;;3.40;;
3280;SDS011;1652;51.31805600;6.20194400;2024-01-10T03:08:39;4.00;;;3.60;;
3280;SDS011;1652;51.31805600;6.20194400;2024-01-10T03:11:06;2.77;;;2.57;;
3280;SDS011;1652;51.31805600;6.20194400;2024-01-10T03:13:33;2.30;;;2.10;;
3280;SDS011;1652;51.31805600;6.20194400;2024-01-10T03:16:00;5.20;;;3.57;;
3280;SDS011;1652;51.31805600;6.20194400;2024-01-10T03:18:27;3.63;;;3.30;;
3280;SDS011;1652;51.31805600;6.20194400;2024-01-10T03:20:54;4.60;;;3.33;;
3280;SDS011;1652;51.31805600;6.20194400;2024-01-10T03:23:22;4.87;;;3.70;;
3280;SDS011;1652;51.31805600;6.20194400;2024-01-10T03:25:49;5.00;;;3.50;;
3280;SDS011;1652;51.31805600;6.20194400;2024-01-10T03:28:16;6.73;;;3.80;;
3280;SDS011;1652;51.31805600;6.20194400;2024-01-10T03:30:46;3.40;;;3.10;;
3280;SDS011;1652;51.31805600;6.20194400;2024-01-10T03:33:13;4.00;;;3.70;;
3280;SDS011;1652;51.31805600;6.20194400;2024-01-10T03:35:43;3.30;;;3.03;;
3280;SDS011;1652;51.31805600;6.20194400;2024-01-10T03:38:10;3.00;;;2.80;;
3280;SDS011;1652;51.31805600;6.20194400;2024-01-10T03:40:37;4.47;;;3.00;;
3280;SDS011;1652;51.31805600;6.20194400;2024-01-10T03:43:04;5.17;;;3.50;;
3280;SDS011;1652;51.31805600;6.20194400;2024-01-10T03:45:31;3.30;;;3.10;;
3280;SDS011;1652;51.31805600;6.20194400;2024-01-10T03:47:58;5.70;;;3.60;;
3280;SDS011;1652;51.31805600;6.20194400;2024-01-10T03:50:25;3.47;;;3.17;;
3280;SDS011;1652;51.31805600;6.20194400;2024-01-10T03:52:52;3.30;;;3.10;;
3280;SDS011;1652;51.31805600;6.20194400;2024-01-10T03:55:19;3.47;;;3.27;;
3280;SDS011;1652;51.31805600;6.20194400;2024-01-10T03:57:45;3.07;;;2.80;;
3280;SDS011;1652;51.31805600;6.20194400;2024-01-10T04:00:12;3.53;;;3.10;;
3280;SDS011;1652;51.31805600;6.20194400;2024-01-10T04:02:39;4.60;;;3.30;;
3280;SDS011;1652;51.31805600;6.20194400;2024-01-10T04:05:09;4.67;;;3.33;;
3280;SDS011;1652;51.31805600;6.20194400;2024-01-10T04:07:42;4.60;;;3.07;;
3280;SDS011;1652;51.31805600;6.20194400;2024-01-10T04:10:10;3.83;;;3.23;;
3280;SDS011;1652;51.31805600;6.20194400;2024-01-10T04:12:40;3.50;;;3.23;;
3280;SDS011;1652;51.31805600;6.20194400;2024-01-10T04:15:07;3.40;;;3.10;;
3280;SDS011;1652;51.31805600;6.20194400;2024-01-10T04:17:34;3.00;;;2.80;;
3280;SDS011;1652;51.31805600;6.20194400;2024-01-10T04:20:02;5.00;;;3.60;;
3280;SDS011;1652;51.31805600;6.20194400;2024-01-10T04:22:30;3.70;;;3.40;;
3280;SDS011;1652;51.31805600;6.20194400;2024-01-10T04:24:57;4.87;;;4.43;;
3280;SDS011;1652;51.31805600;6.20194400;2024-01-10T04:27:25;3.97;;;3.20;;
3280;SDS011;1652;51.31805600;6.20194400;2024-01-10T04:29:53;3.80;;;3.50;;
3280;SDS011;1652;51.31805600;6.20194400;2024-01-10T04:32:20;3.93;;;3.47;;
3280;SDS011;1652;51.31805600;6.20194400;2024-01-10T04:34:47;3.57;;;3.37;;
3280;SDS011;1652;51.31805600;6.20194400;2024-01-10T04:37:14;8.40;;;4.40;;
3280;SDS011;1652;51.31805600;6.20194400;2024-01-10T04:39:41;4.63;;;3.47;;
3280;SDS011;1652;51.31805600;6.20194400;2024-01-10T04:42:11;2.53;;;1.67;;
3280;SDS011;1652;51.31805600;6.20194400;2024-01-10T04:44:39;2.70;;;2.50;;
3280;SDS011;1652;51.31805600;6.20194400;2024-01-10T04:47:06;2.60;;;2.40;;
3280;SDS011;1652;51.31805600;6.20194400;2024-01-10T04:49:34;3.93;;;2.70;;
3280;SDS011;1652;51.31805600;6.20194400;2024-01-10T04:52:01;5.27;;;3.23;;
3280;SDS011;1652;51.31805600;6.20194400;2024-01-10T04:54:28;6.17;;;4.43;;
3280;SDS011;1652;51.31805600;6.20194400;2024-01-10T04:56:55;3.33;;;3.03;;
3280;SDS011;1652;51.31805600;6.20194400;2024-01-10T04:59:22;4.40;;;4.10;;
3280;SDS011;1652;51.31805600;6.20194400;2024-01-10T05:01:49;3.93;;;3.57;;
3280;SDS011;1652;51.31805600;6.20194400;2024-01-10T05:04:16;5.97;;;3.97;;
3280;SDS011;1652;51.31805600;6.20194400;2024-01-10T05:06:43;5.47;;;3.43;;
3280;SDS011;1652;51.31805600;6.20194400;2024-01-10T05:09:10;5.27;;;3.00;;
3280;SDS011;1652;51.31805600;6.20194400;2024-01-10T05:11:37;4.37;;;3.53;;
3280;SDS011;1652;51.31805600;6.20194400;2024-01-10T05:14:07;4.20;;;3.80;;
3280;SDS011;1652;51.31805600;6.20194400;2024-01-10T05:16:34;3.67;;;3.37;;
3280;SDS011;1652;51.31805600;6.20194400;2024-01-10T05:19:01;5.10;;;2.77;;
3280;SDS011;1652;51.31805600;6.20194400;2024-01-10T05:21:31;4.67;;;4.27;;
3280;SDS011;1652;51.31805600;6.20194400;2024-01-10T05:23:59;5.27;;;3.90;;
3280;SDS011;1652;51.31805600;6.20194400;2024-01-10T05:26:26;3.87;;;3.53;;
3280;SDS011;1652;51.31805600;6.20194400;2024-01-10T05:28:53;6.77;;;4.00;;
3280;SDS011;1652;51.31805600;6.20194400;2024-01-10T05:31:20;5.00;;;3.90;;
3280;SDS011;1652;51.31805600;6.20194400;2024-01-10T05:33:47;6.30;;;3.43;;
3280;SDS011;1652;51.31805600;6.20194400;2024-01-10T05:36:14;5.37;;;3.53;;
3280;SDS011;1652;51.31805600;6.20194400;2024-01-10T05:38:41;6.97;;;3.97;;
3280;SDS011;1652;51.31805600;6.20194400;2024-01-10T05:41:07;7.40;;;4.83;;
3280;SDS011;1652;51.31805600;6.20194400;2024-01-10T05:43:35;5.57;;;2.83;;
3280;SDS011;1652;51.31805600;6.20194400;2024-01-10T05:46:03;3.17;;;2.63;;
3280;SDS011;1652;51.31805600;6.20194400;2024-01-10T05:48:31;5.30;;;3.37;;
3280;SDS011;1652;51.31805600;6.20194400;2024-01-10T05:50:59;3.00;;;2.80;;
3280;SDS011;1652;51.31805600;6.20194400;2024-01-10T05:53:27;5.50;;;4.10;;
3280;SDS011;1652;51.31805600;6.20194400;2024-01-10T05:55:54;5.10;;;3.10;;
3280;SDS011;1652;51.31805600;6.20194400;2024-01-10T05:58:21;3.40;;;3.17;;
3280;SDS011;1652;51.31805600;6.20194400;2024-01-10T06:00:48;6.73;;;4.23;;
3280;SDS011;1652;51.31805600;6.20194400;2024-01-10T06:03:15;3.83;;;3.60;;
3280;SDS011;1652;51.31805600;6.20194400;2024-01-10T06:05:42;4.67;;;3.70;;
3280;SDS011;1652;51.31805600;6.20194400;2024-01-10T06:08:09;3.70;;;3.40;;
3280;SDS011;1652;51.31805600;6.20194400;2024-01-10T06:10:36;3.17;;;2.97;;
3280;SDS011;1652;51.31805600;6.20194400;2024-01-10T06:13:03;4.60;;;3.93;;
3280;SDS011;1652;51.31805600;6.20194400;2024-01-10T06:15:30;5.80;;;3.50;;
3280;SDS011;1652;51.31805600;6.20194400;2024-01-10T06:17:57;5.73;;;3.20;;
3280;SDS011;1652;51.31805600;6.20194400;2024-01-10T06:20:25;4.60;;;4.00;;
3280;SDS011;1652;51.31805600;6.20194400;2024-01-10T06:22:52;5.33;;;4.07;;
3280;SDS011;1652;51.31805600;6.20194400;2024-01-10T06:25:19;3.73;;;3.37;;
3280;SDS011;1652;51.31805600;6.20194400;2024-01-10T06:27:46;3.63;;;3.30;;
3280;SDS011;1652;51.31805600;6.20194400;2024-01-10T06:30:13;8.53;;;3.83;;
3280;SDS011;1652;51.31805600;6.20194400;2024-01-10T06:32:40;5.43;;;4.30;;
3280;SDS011;1652;51.31805600;6.20194400;2024-01-10T06:35:07;4.27;;;3.87;;
3280;SDS011;1652;51.31805600;6.20194400;2024-01-10T06:37:37;5.30;;;3.70;;
3280;SDS011;1652;51.31805600;6.20194400;2024-01-10T06:40:05;7.43;;;4.50;;
3280;SDS011;1652;51.31805600;6.20194400;2024-01-10T06:42:32;5.87;;;3.73;;
3280;SDS011;1652;51.31805600;6.20194400;2024-01-10T06:44:59;5.23;;;4.00;;
3280;SDS011;1652;51.31805600;6.20194400;2024-01-10T06:47:26;5.07;;;4.60;;
3280;SDS011;1652;51.31805600;6.20194400;2024-01-10T06:49:54;5.43;;;3.93;;
3280;SDS011;1652;51.31805600;6.20194400;2024-01-10T06:52:21;4.17;;;3.73;;
3280;SDS011;1652;51.31805600;6.20194400;2024-01-10T06:54:48;4.23;;;3.83;;
3280;SDS011;1652;51.31805600;6.20194400;2024-01-10T06:57:15;3.90;;;3.60;;
3280;SDS011;1652;51.31805600;6.20194400;2024-01-10T06:59:42;4.83;;;3.30;;
3280;SDS011;1652;51.31805600;6.20194400;2024-01-10T07:02:09;4.10;;;3.80;;
3280;SDS011;1652;51.31805600;6.20194400;2024-01-10T07:04:37;5.93;;;4.40;;
3280;SDS011;1652;51.31805600;6.20194400;2024-01-10T07:07:04;4.17;;;3.67;;
3280;SDS011;1652;51.31805600;6.20194400;2024-01-10T07:09:32;4.47;;;4.07;;
3280;SDS011;1652;51.31805600;6.20194400;2024-01-10T07:11:59;5.13;;;4.50;;
3280;SDS011;1652;51.31805600;6.20194400;2024-01-10T07:14:26;3.70;;;2.77;;
3280;SDS011;1652;51.31805600;6.20194400;2024-01-10T07:16:53;3.83;;;3.53;;
3280;SDS011;1652;51.31805600;6.20194400;2024-01-10T07:19:23;5.47;;;3.90;;
3280;SDS011;1652;51.31805600;6.20194400;2024-01-10T07:21:50;4.17;;;3.77;;
3280;SDS011;1652;51.31805600;6.20194400;2024-01-10T07:24:17;4.50;;;3.40;;
3280;SDS011;1652;51.31805600;6.20194400;2024-01-10T07:26:44;4.30;;;3.90;;
3280;SDS011;1652;51.31805600;6.20194400;2024-01-10T07:29:11;10.00;;;4.40;;
3280;SDS011;1652;51.31805600;6.20194400;2024-01-10T07:31:38;5.00;;;4.30;;
3280;SDS011;1652;51.31805600;6.20194400;2024-01-10T07:34:07;8.30;;;4.70;;
3280;SDS011;1652;51.31805600;6.20194400;2024-01-10T07:36:37;10.23;;;4.60;;
3280;SDS011;1652;51.31805600;6.20194400;2024-01-10T07:39:09;7.53;;;5.10;;
3280;SDS011;1652;51.31805600;6.20194400;2024-01-10T07:41:36;4.40;;;4.00;;
3280;SDS011;1652;51.31805600;6.20194400;2024-01-10T07:44:03;12.53;;;4.23;;
3280;SDS011;1652;51.31805600;6.20194400;2024-01-10T07:46:30;5.00;;;4.10;;
3280;SDS011;1652;51.31805600;6.20194400;2024-01-10T07:48:57;6.07;;;4.10;;
3280;SDS011;1652;51.31805600;6.20194400;2024-01-10T07:51:27;11.33;;;4.27;;
3280;SDS011;1652;51.31805600;6.20194400;2024-01-10T07:53:54;7.07;;;4.07;;
3280;SDS011;1652;51.31805600;6.20194400;2024-01-10T07:56:21;4.80;;;4.30;;
3280;SDS011;1652;51.31805600;6.20194400;2024-01-10T07:58:48;7.43;;;4.97;;
3280;SDS011;1652;51.31805600;6.20194400;2024-01-10T08:01:15;7.20;;;4.47;;
3280;SDS011;1652;51.31805600;6.20194400;2024-01-10T08:03:42;4.40;;;4.00;;
3280;SDS011;1652;51.31805600;6.20194400;2024-01-10T08:06:09;9.70;;;4.90;;
3280;SDS011;1652;51.31805600;6.20194400;2024-01-10T08:08:52;4.47;;;2.70;;
3280;SDS011;1652;51.31805600;6.20194400;2024-01-10T08:11:19;5.43;;;4.90;;
3280;SDS011;1652;51.31805600;6.20194400;2024-01-10T08:13:46;8.00;;;4.73;;
3280;SDS011;1652;51.31805600;6.20194400;2024-01-10T08:16:12;12.53;;;5.10;;
3280;SDS011;1652;51.31805600;6.20194400;2024-01-10T08:18:40;2.47;;;2.27;;
3280;SDS011;1652;51.31805600;6.20194400;2024-01-10T08:21:08;3.10;;;2.90;;
3280;SDS011;1652;51.31805600;6.20194400;2024-01-10T08:23:35;9.33;;;4.70;;
3280;SDS011;1652;51.31805600;6.20194400;2024-01-10T08:26:02;8.73;;;5.10;;
3280;SDS011;1652;51.31805600;6.20194400;2024-01-10T08:28:29;33.37;;;4.93;;
3280;SDS011;1652;51.31805600;6.20194400;2024-01-10T08:30:56;6.33;;;4.87;;
3280;SDS011;1652;51.31805600;6.20194400;2024-01-10T08:33:30;7.67;;;5.73;;
3280;SDS011;1652;51.31805600;6.20194400;2024-01-10T08:35:57;5.30;;;3.77;;
3280;SDS011;1652;51.31805600;6.20194400;2024-01-10T08:38:25;5.07;;;4.03;;
3280;SDS011;1652;51.31805600;6.20194400;2024-01-10T08:40:52;8.87;;;5.40;;
3280;SDS011;1652;51.31805600;6.20194400;2024-01-10T08:43:20;6.60;;;5.90;;
3280;SDS011;1652;51.31805600;6.20194400;2024-01-10T08:48:12;8.20;;;4.27;;
3280;SDS011;1652;51.31805600;6.20194400;2024-01-10T08:50:40;9.77;;;6.10;;
3280;SDS011;1652;51.31805600;6.20194400;2024-01-10T08:53:09;4.43;;;4.13;;
3280;SDS011;1652;51.31805600;6.20194400;2024-01-10T08:55:36;6.33;;;5.30;;
3280;SDS011;1652;51.31805600;6.20194400;2024-01-10T08:58:03;8.60;;;5.63;;
3280;SDS011;1652;51.31805600;6.20194400;2024-01-10T09:00:30;5.03;;;4.53;;
3280;SDS011;1652;51.31805600;6.20194400;2024-01-10T09:02:58;8.43;;;4.40;;
3280;SDS011;1652;51.31805600;6.20194400;2024-01-10T09:05:25;7.93;;;6.33;;
3280;SDS011;1652;51.31805600;6.20194400;2024-01-10T09:07:52;6.10;;;5.10;;
3280;SDS011;1652;51.31805600;6.20194400;2024-01-10T09:10:22;6.17;;;4.43;;
3280;SDS011;1652;51.31805600;6.20194400;2024-01-10T09:12:49;7.03;;;5.07;;
3280;SDS011;1652;51.31805600;6.20194400;2024-01-10T09:15:16;8.47;;;5.30;;
3280;SDS011;1652;51.31805600;6.20194400;2024-01-10T09:17:43;8.93;;;5.37;;
3280;SDS011;1652;51.31805600;6.20194400;2024-01-10T09:20:11;10.17;;;5.37;;
3280;SDS011;1652;51.31805600;6.20194400;2024-01-10T09:22:39;7.63;;;5.03;;
3280;SDS011;1652;51.31805600;6.20194400;2024-01-10T09:25:06;6.40;;;5.33;;
3280;SDS011;1652;51.31805600;6.20194400;2024-01-10T09:27:33;8.40;;;6.10;;
3280;SDS011;1652;51.31805600;6.20194400;2024-01-10T09:30:02;7.97;;;5.83;;
3280;SDS011;1652;51.31805600;6.20194400;2024-01-10T09:32:29;6.90;;;6.10;;
3280;SDS011;1652;51.31805600;6.20194400;2024-01-10T09:34:56;14.33;;;6.77;;
3280;SDS011;1652;51.31805600;6.20194400;2024-01-10T09:37:24;10.47;;;6.80;;
3280;SDS011;1652;51.31805600;6.20194400;2024-01-10T09:39:51;7.07;;;5.30;;
3280;SDS011;1652;51.31805600;6.20194400;2024-01-10T09:42:19;8.60;;;6.40;;
3280;SDS011;1652;51.31805600;6.20194400;2024-01-10T09:44:51;12.07;;;7.37;;
3280;SDS011;1652;51.31805600;6.20194400;2024-01-10T09:47:19;9.50;;;5.97;;
3280;SDS011;1652;51.31805600;6.20194400;2024-01-10T09:49:47;7.63;;;5.03;;
3280;SDS011;1652;51.31805600;6.20194400;2024-01-10T09:52:16;11.73;;;7.30;;
3280;SDS011;1652;51.31805600;6.20194400;2024-01-10T09:54:59;9.77;;;6.07;;
3280;SDS011;1652;51.31805600;6.20194400;2024-01-10T09:57:27;11.40;;;6.73;;
3280;SDS011;1652;51.31805600;6.20194400;2024-01-10T09:59:55;8.00;;;5.30;;
3280;SDS011;1652;51.31805600;6.20194400;2024-01-10T10:02:22;11.30;;;5.43;;
3280;SDS011;1652;51.31805600;6.20194400;2024-01-10T10:07:23;9.27;;;6.13;;
3280;SDS011;1652;51.31805600;6.20194400;2024-01-10T10:09:50;9.07;;;5.70;;
3280;SDS011;1652;51.31805600;6.20194400;2024-01-10T10:12:19;8.23;;;5.83;;
3280;SDS011;1652;51.31805600;6.20194400;2024-01-10T10:14:46;7.53;;;5.87;;
3280;SDS011;1652;51.31805600;6.20194400;2024-01-10T10:17:14;9.03;;;5.90;;
3280;SDS011;1652;51.31805600;6.20194400;2024-01-10T10:19:42;10.73;;;6.30;;
3280;SDS011;1652;51.31805600;6.20194400;2024-01-10T10:22:10;6.20;;;5.20;;
3280;SDS011;1652;51.31805600;6.20194400;2024-01-10T10:24:38;9.37;;;5.93;;
3280;SDS011;1652;51.31805600;6.20194400;2024-01-10T10:27:10;10.60;;;6.60;;
3280;SDS011;1652;51.31805600;6.20194400;2024-01-10T10:29:39;8.03;;;5.37;;
3280;SDS011;1652;51.31805600;6.20194400;2024-01-10T10:32:06;9.27;;;6.50;;
3280;SDS011;1652;51.31805600;6.20194400;2024-01-10T10:34:35;9.30;;;5.20;;
3280;SDS011;1652;51.31805600;6.20194400;2024-01-10T10:37:02;8.80;;;6.80;;
3280;SDS011;1652;51.31805600;6.20194400;2024-01-10T10:39:29;12.30;;;5.87;;
3280;SDS011;1652;51.31805600;6.20194400;2024-01-10T10:41:56;8.17;;;5.90;;
3280;SDS011;1652;51.31805600;6.20194400;2024-01-10T10:44:24;8.03;;;5.77;;
3280;SDS011;1652;51.31805600;6.20194400;2024-01-10T10:46:53;13.80;;;6.97;;
3280;SDS011;1652;51.31805600;6.20194400;2024-01-10T10:49:37;8.30;;;5.40;;
3280;SDS011;1652;51.31805600;6.20194400;2024-01-10T10:52:13;10.40;;;6.40;;
3280;SDS011;1652;51.31805600;6.20194400;2024-01-10T10:54:41;10.43;;;6.93;;
3280;SDS011;1652;51.31805600;6.20194400;2024-01-10T10:57:10;26.30;;;6.67;;
3280;SDS011;1652;51.31805600;6.20194400;2024-01-10T10:59:38;9.90;;;6.77;;
3280;SDS011;1652;51.31805600;6.20194400;2024-01-10T11:02:06;8.33;;;6.43;;
3280;SDS011;1652;51.31805600;6.20194400;2024-01-10T11:04:37;10.00;;;6.30;;
3280;SDS011;1652;51.31805600;6.20194400;2024-01-10T11:07:11;8.63;;;5.77;;
3280;SDS011;1652;51.31805600;6.20194400;2024-01-10T11:09:38;9.03;;;6.63;;
3280;SDS011;1652;51.31805600;6.20194400;2024-01-10T11:23:39;15.13;;;7.00;;
3280;SDS011;1652;51.31805600;6.20194400;2024-01-10T11:26:16;15.53;;;6.60;;
3280;SDS011;1652;51.31805600;6.20194400;2024-01-10T11:28:46;14.67;;;8.10;;
3280;SDS011;1652;51.31805600;6.20194400;2024-01-10T11:31:14;8.47;;;6.83;;
3280;SDS011;1652;51.31805600;6.20194400;2024-01-10T11:33:44;9.73;;;6.20;;
3280;SDS011;1652;51.31805600;6.20194400;2024-01-10T11:36:16;11.67;;;7.67;;
3280;SDS011;1652;51.31805600;6.20194400;2024-01-10T11:39:04;11.80;;;6.90;;
3280;SDS011;1652;51.31805600;6.20194400;2024-01-10T11:41:35;11.73;;;6.47;;
3280;SDS011;1652;51.31805600;6.20194400;2024-01-10T11:46:39;8.07;;;6.40;;
3280;SDS011;1652;51.31805600;6.20194400;2024-01-10T11:49:09;9.33;;;7.20;;
3280;SDS011;1652;51.31805600;6.20194400;2024-01-10T11:51:38;8.67;;;7.47;;
3280;SDS011;1652;51.31805600;6.20194400;2024-01-10T11:54:06;8.73;;;6.13;;
3280;SDS011;1652;51.31805600;6.20194400;2024-01-10T11:56:42;15.80;;;7.40;;
3280;SDS011;1652;51.31805600;6.20194400;2024-01-10T11:59:15;11.10;;;6.80;;
3280;SDS011;1652;51.31805600;6.20194400;2024-01-10T12:01:43;9.97;;;7.00;;
3280;SDS011;1652;51.31805600;6.20194400;2024-01-10T12:04:10;8.60;;;5.80;;
3280;SDS011;1652;51.31805600;6.20194400;2024-01-10T12:06:48;8.57;;;5.80;;
3280;SDS011;1652;51.31805600;6.20194400;2024-01-10T12:09:16;9.10;;;6.30;;
3280;SDS011;1652;51.31805600;6.20194400;2024-01-10T12:11:44;8.70;;;6.27;;
3280;SDS011;1652;51.31805600;6.20194400;2024-01-10T12:14:11;12.80;;;8.07;;
3280;SDS011;1652;51.31805600;6.20194400;2024-01-10T12:16:38;10.40;;;6.87;;
3280;SDS011;1652;51.31805600;6.20194400;2024-01-10T12:19:05;15.50;;;7.00;;
3280;SDS011;1652;51.31805600;6.20194400;2024-01-10T12:21:32;13.23;;;6.83;;
3280;SDS011;1652;51.31805600;6.20194400;2024-01-10T12:23:59;10.80;;;7.53;;
3280;SDS011;1652;51.31805600;6.20194400;2024-01-10T12:26:26;11.77;;;7.70;;
3280;SDS011;1652;51.31805600;6.20194400;2024-01-10T12:28:54;15.20;;;6.97;;
3280;SDS011;1652;51.31805600;6.20194400;2024-01-10T12:31:23;12.80;;;6.80;;
3280;SDS011;1652;51.31805600;6.20194400;2024-01-10T12:33:51;14.10;;;8.27;;
3280;SDS011;1652;51.31805600;6.20194400;2024-01-10T12:36:19;13.10;;;8.13;;
3280;SDS011;1652;51.31805600;6.20194400;2024-01-10T12:38:46;14.20;;;8.07;;
3280;SDS011;1652;51.31805600;6.20194400;2024-01-10T12:41:14;13.87;;;7.67;;
3280;SDS011;1652;51.31805600;6.20194400;2024-01-10T12:43:42;9.67;;;7.50;;
3280;SDS011;1652;51.31805600;6.20194400;2024-01-10T12:46:12;13.10;;;7.57;;
3280;SDS011;1652;51.31805600;6.20194400;2024-01-10T12:48:41;19.57;;;7.83;;
3280;SDS011;1652;51.31805600;6.20194400;2024-01-10T12:51:09;10.93;;;7.57;;
3280;SDS011;1652;51.31805600;6.20194400;2024-01-10T12:53:37;8.07;;;6.20;;
3280;SDS011;1652;51.31805600;6.20194400;2024-01-10T12:56:09;9.83;;;6.53;;
3280;SDS011;1652;51.31805600;6.20194400;2024-01-10T12:58:41;8.60;;;6.20;;
3280;SDS011;1652;51.31805600;6.20194400;2024-01-10T13:01:08;12.63;;;7.67;;
3280;SDS011;1652;51.31805600;6.20194400;2024-01-10T13:03:35;10.93;;;6.53;;
3280;SDS011;1652;51.31805600;6.20194400;2024-01-10T13:06:03;11.17;;;6.10;;
3280;SDS011;1652;51.31805600;6.20194400;2024-01-10T13:08:31;10.00;;;6.27;;
3280;SDS011;1652;51.31805600;6.20194400;2024-01-10T13:10:58;14.80;;;8.47;;
3280;SDS011;1652;51.31805600;6.20194400;2024-01-10T13:13:30;12.87;;;7.60;;
3280;SDS011;1652;51.31805600;6.20194400;2024-01-10T13:15:57;9.87;;;6.67;;
3280;SDS011;1652;51.31805600;6.20194400;2024-01-10T13:18:24;7.67;;;6.43;;
3280;SDS011;1652;51.31805600;6.20194400;2024-01-10T13:20:51;9.83;;;5.83;;
3280;SDS011;1652;51.31805600;6.20194400;2024-01-10T13:23:18;12.40;;;6.10;;
3280;SDS011;1652;51.31805600;6.20194400;2024-01-10T13:25:45;9.90;;;6.90;;
3280;SDS011;1652;51.31805600;6.20194400;2024-01-10T13:28:12;8.30;;;6.10;;
3280;SDS011;1652;51.31805600;6.20194400;2024-01-10T13:30:39;9.87;;;6.87;;
3280;SDS011;1652;51.31805600;6.20194400;2024-01-10T13:33:09;9.00;;;5.90;;